createdAt,value
2022-08-19T00:01:57.262Z,24.52
2022-08-19T00:04:30.431Z,24.70
2022-08-19T00:07:00.562Z,24.59
2022-08-19T00:09:29.440Z,24.52
2022-08-19T00:11:58.945Z,24.54
2022-08-19T00:14:28.297Z,24.44
2022-08-19T00:16:57.905Z,24.56
2022-08-19T00:19:26.653Z,24.49
2022-08-19T00:21:56.920Z,24.34
2022-08-19T00:24:25.721Z,24.33
2022-08-19T00:26:55.467Z,24.15
2022-08-19T00:29:25.181Z,24.07
2022-08-19T00:31:57.515Z,24.02
2022-08-19T00:34:28.085Z,23.85
2022-08-19T00:36:57.570Z,23.92
2022-08-19T00:39:27.322Z,23.73
2022-08-19T00:41:56.131Z,23.65
2022-08-19T00:44:26.938Z,23.53
2022-08-19T00:46:58.020Z,23.62
2022-08-19T00:49:35.040Z,23.33
2022-08-19T00:52:05.258Z,23.33
2022-08-19T00:54:34.680Z,23.56
2022-08-19T00:57:04.026Z,23.46
2022-08-19T00:59:58.765Z,23.21
2022-08-19T01:02:03.786Z,23.13
2022-08-19T01:04:32.549Z,23.19
2022-08-19T01:07:01.808Z,23.38
2022-08-19T01:09:31.206Z,23.51
2022-08-19T01:12:00.014Z,23.31
2022-08-19T01:16:57.837Z,23.49
2022-08-19T01:19:28.081Z,23.29
2022-08-19T01:22:14.162Z,23.19
2022-08-19T01:24:36.750Z,23.12
2022-08-19T01:27:10.816Z,23.12
2022-08-19T01:29:41.632Z,23.25
2022-08-19T01:32:21.172Z,23.31
2022-08-19T01:34:45.765Z,23.22
2022-08-19T01:37:15.379Z,23.16
2022-08-19T01:39:46.811Z,23.08
2022-08-19T01:42:16.653Z,23.11
2022-08-19T01:44:45.420Z,23.05
2022-08-19T01:47:14.156Z,23.01
2022-08-19T01:49:42.885Z,22.94
2022-08-19T01:52:11.633Z,22.87
2022-08-19T01:54:40.360Z,22.83
2022-08-19T01:57:10.628Z,22.85
2022-08-19T01:59:41.134Z,22.77
2022-08-19T02:02:09.876Z,22.77
2022-08-19T02:04:41.535Z,22.67
2022-08-19T02:07:10.337Z,22.62
2022-08-19T02:09:39.419Z,22.58
2022-08-19T02:12:09.797Z,22.53
2022-08-19T02:14:38.707Z,22.39
2022-08-19T02:17:07.492Z,22.39
2022-08-19T02:19:36.491Z,22.37
2022-08-19T02:22:06.912Z,22.28
2022-08-19T02:24:35.658Z,22.17
2022-08-19T02:27:05.858Z,22.12
2022-08-19T02:29:34.648Z,22.05
2022-08-19T02:32:03.659Z,22.22
2022-08-19T02:34:32.482Z,22.07
2022-08-19T02:37:03.732Z,22.10
2022-08-19T02:39:32.434Z,22.13
2022-08-19T02:42:02.793Z,22.04
2022-08-19T02:44:32.112Z,22.20
2022-08-19T02:47:00.927Z,22.38
2022-08-19T02:49:29.670Z,22.14
2022-08-19T02:52:00.031Z,22.33
2022-08-19T02:54:29.549Z,22.35
2022-08-19T02:56:58.280Z,22.24
2022-08-19T02:59:27.685Z,22.16
2022-08-19T03:01:56.413Z,22.12
2022-08-19T03:04:25.351Z,22.11
2022-08-19T03:06:57.538Z,21.99
2022-08-19T03:09:25.475Z,21.89
2022-08-19T03:11:55.278Z,21.80
2022-08-19T03:14:24.270Z,21.76
2022-08-19T03:16:53.704Z,21.72
2022-08-19T03:19:22.802Z,21.67
2022-08-19T03:21:52.179Z,21.63
2022-08-19T03:24:21.741Z,21.61
2022-08-19T03:26:52.319Z,21.56
2022-08-19T03:29:30.272Z,21.54
2022-08-19T03:31:53.016Z,21.58
2022-08-19T03:34:23.609Z,21.59
2022-08-19T03:36:52.403Z,21.52
2022-08-19T03:39:21.167Z,21.50
2022-08-19T03:42:32.524Z,21.56
2022-08-19T03:44:24.023Z,21.41
2022-08-19T03:46:54.940Z,21.32
2022-08-19T03:49:27.197Z,21.42
2022-08-19T03:51:56.261Z,21.26
2022-08-19T03:54:26.052Z,21.34
2022-08-19T03:56:55.956Z,21.30
2022-08-19T03:59:26.865Z,21.42
2022-08-19T04:01:57.202Z,21.33
2022-08-19T04:04:29.056Z,21.44
2022-08-19T04:06:56.828Z,21.50
2022-08-19T04:09:25.640Z,21.43
2022-08-19T04:11:55.424Z,21.50
2022-08-19T04:14:25.593Z,21.50
2022-08-19T04:16:54.888Z,21.47
2022-08-19T04:19:24.289Z,21.48
2022-08-19T04:21:55.201Z,21.43
2022-08-19T04:24:24.499Z,21.54
2022-08-19T04:26:53.597Z,21.55
2022-08-19T04:29:25.488Z,21.60
2022-08-19T04:31:55.174Z,21.74
2022-08-19T04:34:25.358Z,21.96
2022-08-19T04:36:54.869Z,21.89
2022-08-19T04:39:26.737Z,21.88
2022-08-19T04:42:14.119Z,21.83
2022-08-19T04:44:46.433Z,21.90
2022-08-19T04:47:13.264Z,21.93
2022-08-19T04:49:42.845Z,22.07
2022-08-19T04:52:11.570Z,22.24
2022-08-19T04:54:41.341Z,22.29
2022-08-19T04:57:11.367Z,22.37
2022-08-19T04:59:41.117Z,22.42
2022-08-19T05:02:11.865Z,22.55
2022-08-19T05:04:40.855Z,22.70
2022-08-19T05:07:10.837Z,22.69
2022-08-19T05:09:58.288Z,22.73
2022-08-19T05:12:10.052Z,22.82
2022-08-19T05:14:38.828Z,22.87
2022-08-19T05:17:26.705Z,22.84
2022-08-19T05:19:57.278Z,23.00
2022-08-19T05:22:36.624Z,23.03
2022-08-19T05:25:12.947Z,23.13
2022-08-19T05:27:40.685Z,23.09
2022-08-19T05:30:10.198Z,23.15
2022-08-19T05:32:39.483Z,23.19
2022-08-19T05:35:08.524Z,23.35
2022-08-19T05:37:37.418Z,23.36
2022-08-19T05:40:07.424Z,23.44
2022-08-19T05:42:36.186Z,23.65
2022-08-19T05:45:05.565Z,23.77
2022-08-19T05:47:34.352Z,23.84
2022-08-19T05:50:04.899Z,23.93
2022-08-19T05:52:34.097Z,24.11
2022-08-19T05:55:02.908Z,24.15
2022-08-19T05:57:31.665Z,24.24
2022-08-19T06:00:02.042Z,24.27
2022-08-19T06:02:32.549Z,24.08
2022-08-19T06:05:01.404Z,24.20
2022-08-19T06:07:30.453Z,24.25
2022-08-19T06:10:00.843Z,24.10
2022-08-19T06:12:32.885Z,23.93
2022-08-19T06:15:03.023Z,23.94
2022-08-19T06:17:32.781Z,24.19
2022-08-19T06:20:01.487Z,24.10
2022-08-19T06:22:31.345Z,24.47
2022-08-19T06:25:00.154Z,24.44
2022-08-19T06:27:30.567Z,23.89
2022-08-19T06:29:59.403Z,23.91
2022-08-19T06:32:28.679Z,23.67
2022-08-19T06:34:57.485Z,24.09
2022-08-19T06:37:26.490Z,24.23
2022-08-19T06:39:55.725Z,24.43
2022-08-19T06:42:24.508Z,24.45
2022-08-19T06:44:53.819Z,24.40
2022-08-19T06:47:28.484Z,24.59
2022-08-19T06:49:55.078Z,24.73
2022-08-19T06:52:25.608Z,24.86
2022-08-19T06:54:56.948Z,24.80
2022-08-19T06:57:27.302Z,25.10
2022-08-19T06:59:57.430Z,25.05
2022-08-19T07:02:27.600Z,25.00
2022-08-19T07:04:58.138Z,25.45
2022-08-19T07:07:27.796Z,25.60
2022-08-19T07:09:59.225Z,25.89
2022-08-19T07:12:27.128Z,25.87
2022-08-19T07:14:55.876Z,25.82
2022-08-19T07:17:24.616Z,25.61
2022-08-19T07:19:54.153Z,25.62
2022-08-19T07:22:26.091Z,25.76
2022-08-19T07:24:55.093Z,26.13
2022-08-19T07:27:25.097Z,26.19
2022-08-19T07:29:57.624Z,26.20
2022-08-19T07:32:28.768Z,26.35
2022-08-19T07:34:57.651Z,26.64
2022-08-19T07:37:32.583Z,26.79
2022-08-19T07:40:01.460Z,26.76
2022-08-19T07:42:30.975Z,27.14
2022-08-19T07:45:00.198Z,27.48
2022-08-19T07:47:50.287Z,27.71
2022-08-19T07:50:00.692Z,27.85
2022-08-19T07:52:29.378Z,27.91
2022-08-19T07:54:58.270Z,27.99
2022-08-19T07:57:27.014Z,28.01
2022-08-19T07:59:58.012Z,27.84
2022-08-19T08:02:26.747Z,28.08
2022-08-19T08:05:13.157Z,28.10
2022-08-19T08:08:00.030Z,28.31
2022-08-19T08:10:28.801Z,28.80
2022-08-19T08:13:08.962Z,28.87
2022-08-19T08:15:27.988Z,29.19
2022-08-19T08:17:58.675Z,29.45
2022-08-19T08:20:27.532Z,29.31
2022-08-19T08:23:14.555Z,29.18
2022-08-19T08:25:43.278Z,29.58
2022-08-19T08:28:17.754Z,29.58
2022-08-19T08:30:45.321Z,29.61
2022-08-19T08:35:43.208Z,29.13
2022-08-19T08:38:11.958Z,29.46
2022-08-19T08:40:55.765Z,29.60
2022-08-19T08:43:27.690Z,29.11
2022-08-19T08:46:03.101Z,29.10
2022-08-19T08:48:48.373Z,29.08
2022-08-19T08:51:20.629Z,29.20
2022-08-19T08:53:51.132Z,29.18
2022-08-19T08:56:21.828Z,28.83
2022-08-19T08:58:54.969Z,28.55
2022-08-19T09:01:23.714Z,29.48
2022-08-19T09:03:55.108Z,29.48
2022-08-19T09:06:28.579Z,29.73
2022-08-19T09:08:58.886Z,30.40
2022-08-19T09:11:42.973Z,30.78
2022-08-19T09:14:29.182Z,30.73
2022-08-19T09:16:41.898Z,31.24
2022-08-19T09:19:11.666Z,31.28
2022-08-19T09:21:40.645Z,31.92
2022-08-19T09:24:09.493Z,32.03
2022-08-19T09:26:47.775Z,32.32
2022-08-19T09:29:11.114Z,31.98
2022-08-19T09:31:40.063Z,31.65
2022-08-19T09:34:09.398Z,31.80
2022-08-19T09:36:39.961Z,31.41
2022-08-19T09:39:14.910Z,31.72
2022-08-19T09:41:54.336Z,32.06
2022-08-19T09:44:23.071Z,32.01
2022-08-19T09:46:52.204Z,31.67
2022-08-19T09:49:22.763Z,31.81
2022-08-19T09:51:55.749Z,31.99
2022-08-19T09:54:25.164Z,32.01
2022-08-19T09:56:55.605Z,31.74
2022-08-19T09:59:24.945Z,31.87
2022-08-19T10:01:53.809Z,31.57
2022-08-19T10:04:23.751Z,32.27
2022-08-19T10:06:55.683Z,32.06
2022-08-19T10:09:26.302Z,31.07
2022-08-19T10:11:55.196Z,31.23
2022-08-19T10:14:24.365Z,30.83
2022-08-19T10:16:53.228Z,31.31
2022-08-19T10:19:25.266Z,32.07
2022-08-19T10:21:52.879Z,32.09
2022-08-19T10:24:23.489Z,32.18
2022-08-19T10:26:57.177Z,32.31
2022-08-19T10:29:31.936Z,32.74
2022-08-19T10:31:59.882Z,32.38
2022-08-19T10:34:28.214Z,31.92
2022-08-19T10:37:00.815Z,31.89
2022-08-19T10:39:30.761Z,32.39
2022-08-19T10:41:59.821Z,32.91
2022-08-19T10:44:32.106Z,32.83
2022-08-19T10:47:00.149Z,33.03
2022-08-19T10:49:28.804Z,33.16
2022-08-19T10:52:19.013Z,32.82
2022-08-19T10:55:05.068Z,32.43
2022-08-19T10:57:52.365Z,32.84
2022-08-19T11:00:05.548Z,32.70
2022-08-19T11:02:34.497Z,33.26
2022-08-19T11:05:12.429Z,33.36
2022-08-19T11:07:34.738Z,32.62
2022-08-19T11:10:05.324Z,32.88
2022-08-19T11:12:34.221Z,32.94
2022-08-19T11:15:03.985Z,32.49
2022-08-19T11:17:33.067Z,32.61
2022-08-19T11:20:03.466Z,32.62
2022-08-19T11:22:35.396Z,32.29
2022-08-19T11:25:03.563Z,33.20
2022-08-19T11:27:32.267Z,33.07
2022-08-19T11:30:01.528Z,33.74
2022-08-19T11:32:30.294Z,33.26
2022-08-19T11:34:59.009Z,33.33
2022-08-19T11:37:28.079Z,33.08
2022-08-19T11:39:56.863Z,33.49
2022-08-19T11:42:43.207Z,33.69
2022-08-19T11:45:12.025Z,33.03
2022-08-19T11:47:41.122Z,33.60
2022-08-19T11:50:10.870Z,33.21
2022-08-19T11:52:39.549Z,32.70
2022-08-19T11:55:08.994Z,32.09
2022-08-19T11:57:37.965Z,32.29
2022-08-19T12:00:08.108Z,32.10
2022-08-19T12:02:36.817Z,32.38
2022-08-19T12:05:11.546Z,32.99
2022-08-19T12:07:37.115Z,33.50
2022-08-19T12:10:05.889Z,33.63
2022-08-19T12:12:34.672Z,33.80
2022-08-19T12:15:03.738Z,34.02
2022-08-19T12:17:32.460Z,34.12
2022-08-19T12:20:02.014Z,34.09
2022-08-19T12:22:31.665Z,34.18
2022-08-19T12:25:00.378Z,34.42
2022-08-19T12:27:39.927Z,34.14
2022-08-19T12:30:03.626Z,34.26
2022-08-19T12:32:32.310Z,34.49
2022-08-19T12:35:01.076Z,34.15
2022-08-19T12:37:30.821Z,34.25
2022-08-19T12:39:59.955Z,34.36
2022-08-19T12:42:29.441Z,34.07
2022-08-19T12:44:58.201Z,33.69
2022-08-19T12:47:27.955Z,34.31
2022-08-19T12:49:57.534Z,34.32
2022-08-19T12:52:27.984Z,34.17
2022-08-19T12:54:57.495Z,34.15
2022-08-19T12:57:33.054Z,33.74
2022-08-19T12:59:58.434Z,33.31
2022-08-19T13:02:27.397Z,33.63
2022-08-19T13:04:56.341Z,33.50
2022-08-19T13:07:26.147Z,33.78
2022-08-19T13:09:54.852Z,33.26
2022-08-19T13:12:25.177Z,33.92
2022-08-19T13:14:54.854Z,33.90
2022-08-19T13:17:24.098Z,33.70
2022-08-19T13:19:52.943Z,33.44
2022-08-19T13:22:21.631Z,33.21
2022-08-19T13:24:50.409Z,32.79
2022-08-19T13:27:19.105Z,32.58
2022-08-19T13:30:06.432Z,33.01
2022-08-19T13:32:53.165Z,33.09
2022-08-19T13:35:22.022Z,32.68
2022-08-19T13:37:50.775Z,32.91
2022-08-19T13:40:20.997Z,32.67
2022-08-19T13:42:52.110Z,32.58
2022-08-19T13:45:23.132Z,32.42
2022-08-19T13:47:57.120Z,32.24
2022-08-19T13:50:26.488Z,31.89
2022-08-19T13:52:56.163Z,31.99
2022-08-19T13:55:25.514Z,31.84
2022-08-19T13:57:55.217Z,31.77
2022-08-19T14:00:25.801Z,31.84
2022-08-19T14:02:55.416Z,31.83
2022-08-19T14:05:25.180Z,31.53
2022-08-19T14:07:54.524Z,31.25
2022-08-19T14:10:24.256Z,31.61
2022-08-19T14:13:00.046Z,31.55
2022-08-19T14:15:29.532Z,31.40
2022-08-19T14:17:58.320Z,31.34
2022-08-19T14:20:27.191Z,31.10
2022-08-19T14:22:56.635Z,30.79
2022-08-19T14:25:26.818Z,30.69
2022-08-19T14:27:56.158Z,30.66
2022-08-19T14:30:35.277Z,30.42
2022-08-19T14:33:04.352Z,30.14
2022-08-19T14:35:35.552Z,30.06
2022-08-19T14:38:05.786Z,30.01
2022-08-19T14:40:35.612Z,29.86
2022-08-19T14:43:06.046Z,29.55
2022-08-19T14:45:36.646Z,29.53
2022-08-19T14:48:06.211Z,29.48
2022-08-19T14:50:35.388Z,29.38
2022-08-19T14:53:08.132Z,29.22
2022-08-19T14:55:38.181Z,29.26
2022-08-19T14:58:08.194Z,29.30
2022-08-19T15:00:37.261Z,29.38
2022-08-19T15:03:06.828Z,29.40
2022-08-19T15:05:36.619Z,29.28
2022-08-19T15:08:05.576Z,29.10
2022-08-19T15:10:34.277Z,29.11
2022-08-19T15:13:03.116Z,29.02
2022-08-19T15:15:32.365Z,29.16
2022-08-19T15:18:02.715Z,29.00
2022-08-19T15:20:32.846Z,28.93
2022-08-19T15:23:01.526Z,28.94
2022-08-19T15:25:30.227Z,28.90
2022-08-19T15:28:00.620Z,28.79
2022-08-19T15:30:29.869Z,28.68
2022-08-19T15:32:59.805Z,28.50
2022-08-19T15:35:29.555Z,28.48
2022-08-19T15:37:58.620Z,28.42
2022-08-19T15:40:28.141Z,28.35
2022-08-19T15:42:58.786Z,28.29
2022-08-19T15:45:32.374Z,28.25
2022-08-19T15:48:01.865Z,28.21
2022-08-19T15:50:32.986Z,27.94
2022-08-19T15:53:03.452Z,28.02
2022-08-19T15:55:36.069Z,28.09
2022-08-19T15:58:29.010Z,28.34
2022-08-19T16:01:02.513Z,28.57
2022-08-19T16:03:50.237Z,28.52
2022-08-19T16:06:26.309Z,28.65
2022-08-19T16:08:55.776Z,28.55
2022-08-19T16:11:29.271Z,28.27
2022-08-19T16:13:57.377Z,28.30
2022-08-19T16:19:19.822Z,28.25
2022-08-19T16:21:52.438Z,28.06
2022-08-19T16:24:22.664Z,28.26
2022-08-19T16:26:51.566Z,28.18
2022-08-19T16:29:33.236Z,28.02
2022-08-19T16:31:55.250Z,28.04
2022-08-19T16:34:25.890Z,27.98
2022-08-19T16:36:56.237Z,27.93
2022-08-19T16:39:25.102Z,27.99
2022-08-19T16:41:54.897Z,27.87
2022-08-19T16:44:23.668Z,27.93
2022-08-19T16:46:58.766Z,27.86
2022-08-19T16:49:53.620Z,27.74
2022-08-19T16:51:54.734Z,27.69
2022-08-19T16:54:23.513Z,27.53
2022-08-19T16:56:52.236Z,27.55
2022-08-19T16:59:21.103Z,27.68
2022-08-19T17:01:49.943Z,27.63
2022-08-19T17:04:19.977Z,27.64
2022-08-19T17:06:48.682Z,27.59
2022-08-19T17:09:18.513Z,27.48
2022-08-19T17:11:48.822Z,27.41
2022-08-19T17:14:19.369Z,27.51
2022-08-19T17:16:48.340Z,27.41
2022-08-19T17:19:17.410Z,27.40
2022-08-19T17:21:46.186Z,27.33
2022-08-19T17:24:14.886Z,27.31
2022-08-19T17:26:43.948Z,27.26
2022-08-19T17:29:12.653Z,27.23
2022-08-19T17:31:41.353Z,27.19
2022-08-19T17:34:10.388Z,27.16
2022-08-19T17:36:39.101Z,26.94
2022-08-19T17:39:07.810Z,27.09
2022-08-19T17:41:37.459Z,26.87
2022-08-19T17:44:06.242Z,27.22
2022-08-19T17:46:35.029Z,26.95
2022-08-19T17:49:03.804Z,26.96
2022-08-19T17:51:38.643Z,27.09
2022-08-19T17:54:07.672Z,26.65
2022-08-19T17:56:38.052Z,26.33
2022-08-19T17:59:09.116Z,26.30
2022-08-19T18:01:52.280Z,26.22
2022-08-19T18:04:07.734Z,26.12
2022-08-19T18:06:41.242Z,25.90
2022-08-19T18:09:12.105Z,26.01
2022-08-19T18:11:44.761Z,25.80
2022-08-19T18:14:14.141Z,25.79
2022-08-19T18:16:42.863Z,25.80
2022-08-19T18:19:11.569Z,25.78
2022-08-19T18:21:40.753Z,25.78
2022-08-19T18:24:09.533Z,25.77
2022-08-19T18:26:39.401Z,25.72
2022-08-19T18:29:09.649Z,25.66
2022-08-19T18:31:43.418Z,25.75
2022-08-19T18:34:12.115Z,25.68
2022-08-19T18:36:58.295Z,25.93
2022-08-19T18:39:45.205Z,25.80
2022-08-19T18:42:35.915Z,25.74
2022-08-19T18:45:23.574Z,25.75
2022-08-19T18:48:23.987Z,25.60
2022-08-19T18:50:43.916Z,25.46
2022-08-19T18:53:13.569Z,25.39
2022-08-19T18:55:42.256Z,25.43
2022-08-19T18:58:10.952Z,25.38
2022-08-19T19:00:40.788Z,25.41
2022-08-19T19:03:11.255Z,25.37
2022-08-19T19:05:42.057Z,25.36
2022-08-19T19:08:12.586Z,25.32
2022-08-19T19:10:48.539Z,25.24
2022-08-19T19:13:18.857Z,25.16
2022-08-19T19:15:47.547Z,25.05
2022-08-19T19:18:16.257Z,25.06
2022-08-19T19:20:44.949Z,25.12
2022-08-19T19:23:13.825Z,25.07
2022-08-19T19:25:49.880Z,24.96
2022-08-19T19:28:15.923Z,24.91
2022-08-19T19:30:43.346Z,24.89
2022-08-19T19:33:12.952Z,24.84
2022-08-19T19:35:45.782Z,24.77
2022-08-19T19:38:13.977Z,24.77
2022-08-19T19:40:42.722Z,24.75
2022-08-19T19:43:11.435Z,24.75
2022-08-19T19:45:40.494Z,24.76
2022-08-19T19:48:11.849Z,24.74
2022-08-19T19:50:40.546Z,24.94
2022-08-19T19:53:09.398Z,24.82
2022-08-19T19:55:39.867Z,24.88
2022-08-19T19:58:09.149Z,24.92
2022-08-19T20:00:38.877Z,24.70
2022-08-19T20:03:07.601Z,24.72
2022-08-19T20:05:36.313Z,24.48
2022-08-19T20:08:23.577Z,24.41
2022-08-19T20:10:52.265Z,24.23
2022-08-19T20:13:21.742Z,24.03
2022-08-19T20:15:50.573Z,23.91
2022-08-19T20:18:19.287Z,23.72
2022-08-19T20:20:49.681Z,23.79
2022-08-19T20:23:19.616Z,23.66
2022-08-19T20:25:49.103Z,23.56
2022-08-19T20:28:19.183Z,23.58
2022-08-19T20:30:49.162Z,23.57
2022-08-19T20:33:18.960Z,23.50
2022-08-19T20:35:48.002Z,23.47
2022-08-19T20:38:16.698Z,23.43
2022-08-19T20:40:46.349Z,23.39
2022-08-19T20:43:16.282Z,23.34
2022-08-19T20:45:45.005Z,23.34
2022-08-19T20:48:13.688Z,23.33
2022-08-19T20:50:42.393Z,23.31
2022-08-19T20:53:12.429Z,23.28
2022-08-19T20:55:42.680Z,23.11
2022-08-19T20:58:14.560Z,23.21
2022-08-19T21:00:46.613Z,23.23
2022-08-19T21:03:19.386Z,22.98
2022-08-19T21:05:51.037Z,22.91
2022-08-19T21:08:19.793Z,22.87
2022-08-19T21:10:49.750Z,22.71
2022-08-19T21:13:19.978Z,22.70
2022-08-19T21:15:49.009Z,22.70
2022-08-19T21:18:19.369Z,22.72
2022-08-19T21:20:48.872Z,22.78
2022-08-19T21:23:19.149Z,22.67
2022-08-19T21:25:54.388Z,22.66
2022-08-19T21:28:34.398Z,22.70
2022-08-19T21:30:49.514Z,22.73
2022-08-19T21:33:18.301Z,22.71
2022-08-19T21:35:47.057Z,22.70
2022-08-19T21:38:16.875Z,22.67
2022-08-19T21:40:46.049Z,22.64
2022-08-19T21:43:15.025Z,22.55
2022-08-19T21:45:43.717Z,22.54
2022-08-19T21:48:14.060Z,22.46
2022-08-19T21:50:43.463Z,22.37
2022-08-19T21:53:17.442Z,22.39
2022-08-19T21:55:46.078Z,22.26
2022-08-19T21:58:15.656Z,22.28
2022-08-19T22:00:44.551Z,22.11
2022-08-19T22:03:14.015Z,22.17
2022-08-19T22:05:43.667Z,22.11
2022-08-19T22:08:14.322Z,22.14
2022-08-19T22:10:43.015Z,22.14
2022-08-19T22:13:11.700Z,22.27
2022-08-19T22:15:40.971Z,22.22
2022-08-19T22:18:10.338Z,22.10
2022-08-19T22:20:39.446Z,22.11
2022-08-19T22:23:09.154Z,22.07
2022-08-19T22:25:40.421Z,21.80
2022-08-19T22:28:12.092Z,21.79
2022-08-19T22:30:42.481Z,21.84
2022-08-19T22:33:12.752Z,21.83
2022-08-19T22:35:42.212Z,21.74
2022-08-19T22:38:12.663Z,21.72
2022-08-19T22:40:43.019Z,21.61
2022-08-19T22:43:15.980Z,21.57
2022-08-19T22:45:45.724Z,21.55
2022-08-19T22:48:15.464Z,21.54
2022-08-19T22:50:47.276Z,21.54
2022-08-19T22:53:16.900Z,21.45
2022-08-19T22:55:45.605Z,21.44
2022-08-19T22:58:14.346Z,21.41
2022-08-19T23:00:44.198Z,21.35
2022-08-19T23:03:12.948Z,21.28
2022-08-19T23:05:41.636Z,21.28
2022-08-19T23:08:10.396Z,21.14
2022-08-19T23:10:39.496Z,21.14
2022-08-19T23:13:08.188Z,21.12
2022-08-19T23:15:36.885Z,21.09
2022-08-19T23:18:05.752Z,21.04
2022-08-19T23:20:36.033Z,20.96
2022-08-19T23:23:06.034Z,21.03
2022-08-19T23:25:35.838Z,20.98
2022-08-19T23:28:23.710Z,20.94
2022-08-19T23:30:53.253Z,20.91
2022-08-19T23:33:24.817Z,20.98
2022-08-19T23:35:55.688Z,20.92
2022-08-19T23:38:24.643Z,20.83
2022-08-19T23:40:55.095Z,20.90
2022-08-19T23:43:25.228Z,21.03
2022-08-19T23:45:57.445Z,20.99
2022-08-19T23:48:26.012Z,20.91
2022-08-19T23:50:57.087Z,20.89
2022-08-19T23:53:26.395Z,20.92
2022-08-19T23:55:55.558Z,20.85
2022-08-19T23:58:24.748Z,20.87
